sensor_id;sensor_type;location;lat;lon;timestamp;pressure;altitude;pressure_sealevel;temperature;humidity
63552;BME280;49698;48.072;7.800;2023-09-30T00:01:50;100266.97;;;16.44;90.07
63552;BME280;49698;48.072;7.800;2023-09-30T00:04:19;100263.13;;;16.45;90.32
63552;BME280;49698;48.072;7.800;2023-09-30T00:06:48;100270.47;;;16.44;90.22
63552;BME280;49698;48.072;7.800;2023-09-30T00:09:16;100269.38;;;16.45;90.38
63552;BME280;49698;48.072;7.800;2023-09-30T00:11:45;100262.66;;;16.43;90.78
63552;BME280;49698;48.072;7.800;2023-09-30T00:14:13;100265.16;;;16.39;91.01
63552;BME280;49698;48.072;7.800;2023-09-30T00:16:41;100254.09;;;16.35;91.14
63552;BME280;49698;48.072;7.800;2023-09-30T00:19:09;100252.50;;;16.34;91.46
63552;BME280;49698;48.072;7.800;2023-09-30T00:21:38;100252.78;;;16.33;91.77
63552;BME280;49698;48.072;7.800;2023-09-30T00:24:08;100246.06;;;16.30;91.66
63552;BME280;49698;48.072;7.800;2023-09-30T00:26:36;100243.34;;;16.30;91.80
63552;BME280;49698;48.072;7.800;2023-09-30T00:29:04;100244.94;;;16.31;91.79
63552;BME280;49698;48.072;7.800;2023-09-30T00:31:32;100236.81;;;16.31;91.62
63552;BME280;49698;48.072;7.800;2023-09-30T00:34:00;100232.78;;;16.29;91.76
63552;BME280;49698;48.072;7.800;2023-09-30T00:36:28;100243.44;;;16.25;91.72
63552;BME280;49698;48.072;7.800;2023-09-30T00:38:56;100251.06;;;16.23;91.78
63552;BME280;49698;48.072;7.800;2023-09-30T00:41:26;100256.78;;;16.22;91.79
63552;BME280;49698;48.072;7.800;2023-09-30T00:43:54;100257.91;;;16.21;91.92
63552;BME280;49698;48.072;7.800;2023-09-30T00:46:26;100255.50;;;16.19;92.01
63552;BME280;49698;48.072;7.800;2023-09-30T00:48:58;100255.50;;;16.19;92.38
63552;BME280;49698;48.072;7.800;2023-09-30T00:51:27;100253.56;;;16.20;92.31
63552;BME280;49698;48.072;7.800;2023-09-30T00:53:58;100253.84;;;16.18;92.12
63552;BME280;49698;48.072;7.800;2023-09-30T00:56:29;100252.84;;;16.14;92.53
63552;BME280;49698;48.072;7.800;2023-09-30T00:58:58;100254.88;;;16.08;92.82
63552;BME280;49698;48.072;7.800;2023-09-30T01:01:26;100259.28;;;16.04;93.19
63552;BME280;49698;48.072;7.800;2023-09-30T01:03:55;100254.44;;;16.01;93.28
63552;BME280;49698;48.072;7.800;2023-09-30T01:06:23;100258.53;;;15.99;93.52
63552;BME280;49698;48.072;7.800;2023-09-30T01:08:52;100253.44;;;15.97;93.71
63552;BME280;49698;48.072;7.800;2023-09-30T01:11:21;100259.97;;;15.96;93.83
63552;BME280;49698;48.072;7.800;2023-09-30T01:13:51;100261.88;;;15.96;93.77
63552;BME280;49698;48.072;7.800;2023-09-30T01:16:19;100254.81;;;15.95;94.08
63552;BME280;49698;48.072;7.800;2023-09-30T01:18:47;100255.94;;;15.94;94.12
63552;BME280;49698;48.072;7.800;2023-09-30T01:21:15;100248.91;;;15.93;94.19
63552;BME280;49698;48.072;7.800;2023-09-30T01:23:46;100247.59;;;15.90;93.95
63552;BME280;49698;48.072;7.800;2023-09-30T01:26:14;100237.53;;;15.90;94.55
63552;BME280;49698;48.072;7.800;2023-09-30T01:28:42;100242.97;;;15.90;94.64
63552;BME280;49698;48.072;7.800;2023-09-30T01:31:10;100254.59;;;15.91;94.78
63552;BME280;49698;48.072;7.800;2023-09-30T01:33:38;100255.72;;;15.90;94.66
63552;BME280;49698;48.072;7.800;2023-09-30T01:36:06;100250.00;;;15.92;94.87
63552;BME280;49698;48.072;7.800;2023-09-30T01:38:35;100239.16;;;15.92;94.96
63552;BME280;49698;48.072;7.800;2023-09-30T01:41:05;100241.06;;;15.91;94.93
63552;BME280;49698;48.072;7.800;2023-09-30T01:43:35;100242.97;;;15.90;94.91
63552;BME280;49698;48.072;7.800;2023-09-30T01:46:04;100247.88;;;15.88;94.66
63552;BME280;49698;48.072;7.800;2023-09-30T01:48:33;100244.38;;;15.88;95.20
63552;BME280;49698;48.072;7.800;2023-09-30T01:51:01;100243.84;;;15.86;95.03
63552;BME280;49698;48.072;7.800;2023-09-30T01:53:29;100234.41;;;15.83;95.45
63552;BME280;49698;48.072;7.800;2023-09-30T01:55:58;100242.34;;;15.80;95.67
63552;BME280;49698;48.072;7.800;2023-09-30T01:58:27;100232.91;;;15.77;95.69
63552;BME280;49698;48.072;7.800;2023-09-30T02:01:01;100237.78;;;15.75;95.73
63552;BME280;49698;48.072;7.800;2023-09-30T02:03:30;100236.50;;;15.73;96.06
63552;BME280;49698;48.072;7.800;2023-09-30T02:05:58;100248.72;;;15.70;96.40
63552;BME280;49698;48.072;7.800;2023-09-30T02:08:26;100253.66;;;15.68;96.59
63552;BME280;49698;48.072;7.800;2023-09-30T02:10:54;100256.94;;;15.65;96.68
63552;BME280;49698;48.072;7.800;2023-09-30T02:13:22;100252.88;;;15.62;96.81
63552;BME280;49698;48.072;7.800;2023-09-30T02:15:51;100249.97;;;15.59;96.97
63552;BME280;49698;48.072;7.800;2023-09-30T02:18:21;100247.84;;;15.56;97.26
63552;BME280;49698;48.072;7.800;2023-09-30T02:20:50;100255.47;;;15.54;97.30
63552;BME280;49698;48.072;7.800;2023-09-30T02:23:19;100260.09;;;15.53;97.71
63552;BME280;49698;48.072;7.800;2023-09-30T02:25:48;100254.44;;;15.50;97.51
63552;BME280;49698;48.072;7.800;2023-09-30T02:28:16;100253.44;;;15.46;97.77
63552;BME280;49698;48.072;7.800;2023-09-30T02:30:44;100254.00;;;15.43;97.97
63552;BME280;49698;48.072;7.800;2023-09-30T02:33:14;100252.41;;;15.41;98.08
63552;BME280;49698;48.072;7.800;2023-09-30T02:35:44;100250.78;;;15.40;98.42
63552;BME280;49698;48.072;7.800;2023-09-30T02:38:12;100236.72;;;15.38;98.39
63552;BME280;49698;48.072;7.800;2023-09-30T02:40:43;100249.75;;;15.36;98.71
63552;BME280;49698;48.072;7.800;2023-09-30T02:43:13;100253.56;;;15.35;98.98
63552;BME280;49698;48.072;7.800;2023-09-30T02:45:41;100252.53;;;15.31;99.06
63552;BME280;49698;48.072;7.800;2023-09-30T02:48:10;100267.47;;;15.29;99.29
63552;BME280;49698;48.072;7.800;2023-09-30T02:50:41;100267.56;;;15.24;99.44
63552;BME280;49698;48.072;7.800;2023-09-30T02:53:11;100274.34;;;15.21;99.68
63552;BME280;49698;48.072;7.800;2023-09-30T02:55:40;100273.31;;;15.17;99.65
63552;BME280;49698;48.072;7.800;2023-09-30T02:58:10;100276.03;;;15.17;100.00
63552;BME280;49698;48.072;7.800;2023-09-30T03:00:38;100262.50;;;15.17;100.00
63552;BME280;49698;48.072;7.800;2023-09-30T03:03:06;100267.09;;;15.16;100.00
63552;BME280;49698;48.072;7.800;2023-09-30T03:05:35;100262.50;;;15.17;100.00
63552;BME280;49698;48.072;7.800;2023-09-30T03:08:05;100271.72;;;15.16;100.00
63552;BME280;49698;48.072;7.800;2023-09-30T03:10:33;100275.53;;;15.15;100.00
63552;BME280;49698;48.072;7.800;2023-09-30T03:13:03;100287.16;;;15.15;100.00
63552;BME280;49698;48.072;7.800;2023-09-30T03:15:31;100291.78;;;15.15;100.00
63552;BME280;49698;48.072;7.800;2023-09-30T03:17:59;100295.06;;;15.12;100.00
63552;BME280;49698;48.072;7.800;2023-09-30T03:20:27;100289.94;;;15.10;100.00
63552;BME280;49698;48.072;7.800;2023-09-30T03:22:57;100280.19;;;15.09;100.00
63552;BME280;49698;48.072;7.800;2023-09-30T03:25:27;100277.25;;;15.06;100.00
63552;BME280;49698;48.072;7.800;2023-09-30T03:27:57;100274.31;;;15.02;100.00
63552;BME280;49698;48.072;7.800;2023-09-30T03:30:25;100269.50;;;14.99;100.00
63552;BME280;49698;48.072;7.800;2023-09-30T03:32:53;100261.16;;;14.96;100.00
63552;BME280;49698;48.072;7.800;2023-09-30T03:35:21;100237.69;;;14.91;100.00
63552;BME280;49698;48.072;7.800;2023-09-30T03:37:50;100235.81;;;14.86;100.00
63552;BME280;49698;48.072;7.800;2023-09-30T03:40:18;100232.09;;;14.82;100.00
63552;BME280;49698;48.072;7.800;2023-09-30T03:42:48;100231.88;;;14.79;100.00
63552;BME280;49698;48.072;7.800;2023-09-30T03:45:17;100226.75;;;14.77;100.00
63552;BME280;49698;48.072;7.800;2023-09-30T03:47:45;100221.91;;;14.74;100.00
63552;BME280;49698;48.072;7.800;2023-09-30T03:50:15;100215.47;;;14.70;100.00
63552;BME280;49698;48.072;7.800;2023-09-30T03:52:44;100214.44;;;14.66;100.00
63552;BME280;49698;48.072;7.800;2023-09-30T03:55:12;100202.59;;;14.62;100.00
63552;BME280;49698;48.072;7.800;2023-09-30T03:57:41;100209.38;;;14.59;100.00
63552;BME280;49698;48.072;7.800;2023-09-30T04:00:12;100227.00;;;14.57;100.00
63552;BME280;49698;48.072;7.800;2023-09-30T04:02:45;100238.41;;;14.54;100.00
63552;BME280;49698;48.072;7.800;2023-09-30T04:05:16;100244.38;;;14.51;100.00
63552;BME280;49698;48.072;7.800;2023-09-30T04:07:48;100235.50;;;14.45;100.00
63552;BME280;49698;48.072;7.800;2023-09-30T04:10:17;100241.78;;;14.40;100.00
63552;BME280;49698;48.072;7.800;2023-09-30T04:12:46;100245.06;;;14.37;100.00
63552;BME280;49698;48.072;7.800;2023-09-30T04:15:16;100249.44;;;14.33;100.00
63552;BME280;49698;48.072;7.800;2023-09-30T04:17:44;100237.56;;;14.29;100.00
63552;BME280;49698;48.072;7.800;2023-09-30T04:20:12;100248.97;;;14.26;100.00
63552;BME280;49698;48.072;7.800;2023-09-30T04:22:48;100254.13;;;14.23;100.00
63552;BME280;49698;48.072;7.800;2023-09-30T04:25:18;100248.47;;;14.19;100.00
63552;BME280;49698;48.072;7.800;2023-09-30T04:27:46;100267.47;;;14.14;100.00
63552;BME280;49698;48.072;7.800;2023-09-30T04:30:17;100265.31;;;14.11;100.00
63552;BME280;49698;48.072;7.800;2023-09-30T04:32:45;100274.00;;;14.08;100.00
63552;BME280;49698;48.072;7.800;2023-09-30T04:35:14;100264.84;;;14.04;100.00
63552;BME280;49698;48.072;7.800;2023-09-30T04:37:42;100268.13;;;14.01;100.00
63552;BME280;49698;48.072;7.800;2023-09-30T04:40:10;100268.69;;;13.98;100.00
63552;BME280;49698;48.072;7.800;2023-09-30T04:42:42;100263.84;;;13.94;100.00
63552;BME280;49698;48.072;7.800;2023-09-30T04:45:11;100261.72;;;13.91;100.00
63552;BME280;49698;48.072;7.800;2023-09-30T04:47:41;100266.59;;;13.89;100.00
63552;BME280;49698;48.072;7.800;2023-09-30T04:50:11;100274.19;;;13.87;100.00
63552;BME280;49698;48.072;7.800;2023-09-30T04:52:43;100285.56;;;13.84;100.00
63552;BME280;49698;48.072;7.800;2023-09-30T04:55:13;100293.16;;;13.82;100.00
63552;BME280;49698;48.072;7.800;2023-09-30T04:57:43;100296.91;;;13.81;100.00
63552;BME280;49698;48.072;7.800;2023-09-30T05:00:13;100302.31;;;13.81;100.00
63552;BME280;49698;48.072;7.800;2023-09-30T05:02:43;100307.47;;;13.78;100.00
63552;BME280;49698;48.072;7.800;2023-09-30T05:05:11;100319.94;;;13.74;100.00
63552;BME280;49698;48.072;7.800;2023-09-30T05:07:40;100310.00;;;13.69;100.00
63552;BME280;49698;48.072;7.800;2023-09-30T05:10:09;100306.28;;;13.60;100.00
63552;BME280;49698;48.072;7.800;2023-09-30T05:12:39;100297.13;;;13.51;100.00
63552;BME280;49698;48.072;7.800;2023-09-30T05:15:12;100287.47;;;13.44;100.00
63552;BME280;49698;48.072;7.800;2023-09-30T05:17:43;100288.81;;;13.42;100.00
63552;BME280;49698;48.072;7.800;2023-09-30T05:20:12;100295.59;;;13.39;100.00
63552;BME280;49698;48.072;7.800;2023-09-30T05:22:40;100292.09;;;13.39;100.00
63552;BME280;49698;48.072;7.800;2023-09-30T05:25:12;100297.78;;;13.37;100.00
63552;BME280;49698;48.072;7.800;2023-09-30T05:27:42;100297.78;;;13.37;100.00
63552;BME280;49698;48.072;7.800;2023-09-30T05:30:11;100296.97;;;13.37;100.00
63552;BME280;49698;48.072;7.800;2023-09-30T05:32:43;100285.38;;;13.36;100.00
63552;BME280;49698;48.072;7.800;2023-09-30T05:35:13;100292.66;;;13.36;100.00
63552;BME280;49698;48.072;7.800;2023-09-30T05:37:43;100301.56;;;13.36;100.00
63552;BME280;49698;48.072;7.800;2023-09-30T05:40:12;100297.22;;;13.35;100.00
63552;BME280;49698;48.072;7.800;2023-09-30T05:42:48;100296.44;;;13.35;100.00
63552;BME280;49698;48.072;7.800;2023-09-30T05:45:17;100286.44;;;13.35;100.00
63552;BME280;49698;48.072;7.800;2023-09-30T05:47:47;100283.72;;;13.35;100.00
63552;BME280;49698;48.072;7.800;2023-09-30T05:50:16;100290.50;;;13.33;100.00
63552;BME280;49698;48.072;7.800;2023-09-30T05:52:47;100307.53;;;13.33;100.00
63552;BME280;49698;48.072;7.800;2023-09-30T05:55:15;100323.44;;;13.35;100.00
63552;BME280;49698;48.072;7.800;2023-09-30T05:57:46;100333.97;;;13.36;100.00
63552;BME280;49698;48.072;7.800;2023-09-30T06:00:16;100333.97;;;13.36;100.00
63552;BME280;49698;48.072;7.800;2023-09-30T06:02:50;100344.19;;;13.39;100.00
63552;BME280;49698;48.072;7.800;2023-09-30T06:05:18;100337.72;;;13.40;100.00
63552;BME280;49698;48.072;7.800;2023-09-30T06:07:49;100327.19;;;13.44;100.00
63552;BME280;49698;48.072;7.800;2023-09-30T06:10:17;100324.72;;;13.48;100.00
63552;BME280;49698;48.072;7.800;2023-09-30T06:12:46;100309.03;;;13.50;100.00
63552;BME280;49698;48.072;7.800;2023-09-30T06:15:14;100307.38;;;13.54;100.00
63552;BME280;49698;48.072;7.800;2023-09-30T06:17:50;100302.25;;;13.57;100.00
63552;BME280;49698;48.072;7.800;2023-09-30T06:20:19;100310.88;;;13.59;100.00
63552;BME280;49698;48.072;7.800;2023-09-30T06:22:49;100327.34;;;13.63;100.00
63552;BME280;49698;48.072;7.800;2023-09-30T06:25:17;100330.56;;;13.65;100.00
63552;BME280;49698;48.072;7.800;2023-09-30T06:27:46;100340.00;;;13.67;100.00
63552;BME280;49698;48.072;7.800;2023-09-30T06:30:16;100332.16;;;13.71;100.00
63552;BME280;49698;48.072;7.800;2023-09-30T06:32:44;100331.06;;;13.72;100.00
63552;BME280;49698;48.072;7.800;2023-09-30T06:35:14;100322.41;;;13.70;100.00
63552;BME280;49698;48.072;7.800;2023-09-30T06:37:42;100333.22;;;13.70;100.00
63552;BME280;49698;48.072;7.800;2023-09-30T06:40:12;100344.00;;;13.70;100.00
63552;BME280;49698;48.072;7.800;2023-09-30T06:42:40;100346.47;;;13.72;100.00
63552;BME280;49698;48.072;7.800;2023-09-30T06:45:09;100342.91;;;13.76;100.00
63552;BME280;49698;48.072;7.800;2023-09-30T06:47:39;100345.31;;;13.78;100.00
63552;BME280;49698;48.072;7.800;2023-09-30T06:50:09;100350.97;;;13.81;100.00
63552;BME280;49698;48.072;7.800;2023-09-30T06:52:41;100368.25;;;13.85;100.00
63552;BME280;49698;48.072;7.800;2023-09-30T06:55:12;100374.69;;;13.89;100.00
63552;BME280;49698;48.072;7.800;2023-09-30T06:57:41;100367.38;;;13.95;100.00
63552;BME280;49698;48.072;7.800;2023-09-30T07:00:11;100372.22;;;13.98;100.00
63552;BME280;49698;48.072;7.800;2023-09-30T07:02:40;100369.53;;;13.98;100.00
63552;BME280;49698;48.072;7.800;2023-09-30T07:05:09;100373.53;;;14.01;100.00
63552;BME280;49698;48.072;7.800;2023-09-30T07:07:40;100380.00;;;14.05;100.00
63552;BME280;49698;48.072;7.800;2023-09-30T07:10:10;100380.78;;;14.10;100.00
63552;BME280;49698;48.072;7.800;2023-09-30T07:12:38;100379.88;;;14.20;100.00
63552;BME280;49698;48.072;7.800;2023-09-30T07:15:07;100380.91;;;14.29;100.00
63552;BME280;49698;48.072;7.800;2023-09-30T07:17:36;100381.91;;;14.38;100.00
63552;BME280;49698;48.072;7.800;2023-09-30T07:20:05;100374.78;;;14.48;100.00
63552;BME280;49698;48.072;7.800;2023-09-30T07:22:34;100375.28;;;14.55;100.00
63552;BME280;49698;48.072;7.800;2023-09-30T07:25:13;100379.00;;;14.64;100.00
63552;BME280;49698;48.072;7.800;2023-09-30T07:27:43;100378.88;;;14.74;100.00
63552;BME280;49698;48.072;7.800;2023-09-30T07:30:12;100370.94;;;14.83;100.00
63552;BME280;49698;48.072;7.800;2023-09-30T07:32:44;100368.69;;;14.90;100.00
63552;BME280;49698;48.072;7.800;2023-09-30T07:35:12;100375.69;;;14.96;100.00
63552;BME280;49698;48.072;7.800;2023-09-30T07:37:42;100394.78;;;15.05;100.00
63552;BME280;49698;48.072;7.800;2023-09-30T07:40:11;100403.09;;;15.13;100.00
63552;BME280;49698;48.072;7.800;2023-09-30T07:42:40;100410.59;;;15.22;99.56
63552;BME280;49698;48.072;7.800;2023-09-30T07:45:11;100418.34;;;15.28;99.48
63552;BME280;49698;48.072;7.800;2023-09-30T07:47:44;100407.47;;;15.33;99.18
63552;BME280;49698;48.072;7.800;2023-09-30T07:50:13;100387.63;;;15.38;99.11
63552;BME280;49698;48.072;7.800;2023-09-30T07:52:41;100386.22;;;15.40;99.21
63552;BME280;49698;48.072;7.800;2023-09-30T07:55:09;100395.38;;;15.45;99.36
63552;BME280;49698;48.072;7.800;2023-09-30T07:57:42;100399.13;;;15.49;98.96
63552;BME280;49698;48.072;7.800;2023-09-30T08:00:11;100396.88;;;15.56;98.78
63552;BME280;49698;48.072;7.800;2023-09-30T08:02:43;100400.03;;;15.63;98.52
63552;BME280;49698;48.072;7.800;2023-09-30T08:05:11;100396.69;;;15.71;97.94
63552;BME280;49698;48.072;7.800;2023-09-30T08:07:39;100394.97;;;15.80;97.20
63552;BME280;49698;48.072;7.800;2023-09-30T08:10:09;100389.97;;;15.87;97.01
63552;BME280;49698;48.072;7.800;2023-09-30T08:12:40;100387.97;;;15.93;96.63
63552;BME280;49698;48.072;7.800;2023-09-30T08:15:10;100375.16;;;15.99;96.56
63552;BME280;49698;48.072;7.800;2023-09-30T08:17:40;100377.22;;;16.07;96.15
63552;BME280;49698;48.072;7.800;2023-09-30T08:20:08;100380.84;;;16.16;95.75
63552;BME280;49698;48.072;7.800;2023-09-30T08:22:38;100366.03;;;16.27;95.09
63552;BME280;49698;48.072;7.800;2023-09-30T08:25:08;100374.50;;;16.39;94.76
63552;BME280;49698;48.072;7.800;2023-09-30T08:27:38;100384.16;;;16.46;94.50
63552;BME280;49698;48.072;7.800;2023-09-30T08:30:07;100379.75;;;16.50;94.14
63552;BME280;49698;48.072;7.800;2023-09-30T08:32:38;100389.41;;;16.56;94.08
63552;BME280;49698;48.072;7.800;2023-09-30T08:35:07;100397.44;;;16.61;94.03
63552;BME280;49698;48.072;7.800;2023-09-30T08:37:36;100409.34;;;16.65;94.24
63552;BME280;49698;48.072;7.800;2023-09-30T08:40:05;100417.97;;;16.67;94.34
63552;BME280;49698;48.072;7.800;2023-09-30T08:42:38;100415.78;;;16.69;94.67
63552;BME280;49698;48.072;7.800;2023-09-30T08:45:10;100423.31;;;16.72;94.70
63552;BME280;49698;48.072;7.800;2023-09-30T08:47:42;100424.88;;;16.78;94.61
63552;BME280;49698;48.072;7.800;2023-09-30T08:50:11;100423.69;;;16.84;94.49
63552;BME280;49698;48.072;7.800;2023-09-30T08:52:41;100424.38;;;16.90;94.46
63552;BME280;49698;48.072;7.800;2023-09-30T08:55:11;100419.47;;;16.92;94.38
63552;BME280;49698;48.072;7.800;2023-09-30T08:57:41;100411.50;;;16.96;94.39
63552;BME280;49698;48.072;7.800;2023-09-30T09:00:11;100406.78;;;17.01;94.14
63552;BME280;49698;48.072;7.800;2023-09-30T09:02:41;100407.50;;;17.07;94.06
63552;BME280;49698;48.072;7.800;2023-09-30T09:05:10;100410.53;;;17.19;93.69
63552;BME280;49698;48.072;7.800;2023-09-30T09:07:38;100415.16;;;17.32;93.19
63552;BME280;49698;48.072;7.800;2023-09-30T09:10:09;100412.13;;;17.48;92.53
63552;BME280;49698;48.072;7.800;2023-09-30T09:12:40;100399.13;;;17.58;91.67
63552;BME280;49698;48.072;7.800;2023-09-30T09:15:20;100395.22;;;17.73;91.13
63552;BME280;49698;48.072;7.800;2023-09-30T09:17:50;100394.44;;;17.87;90.31
63552;BME280;49698;48.072;7.800;2023-09-30T09:20:20;100386.53;;;17.99;89.79
63552;BME280;49698;48.072;7.800;2023-09-30T09:22:50;100381.84;;;18.13;89.25
63552;BME280;49698;48.072;7.800;2023-09-30T09:25:20;100386.13;;;18.28;88.35
63552;BME280;49698;48.072;7.800;2023-09-30T09:27:50;100380.59;;;18.42;87.71
63552;BME280;49698;48.072;7.800;2023-09-30T09:30:20;100367.84;;;18.51;87.03
63552;BME280;49698;48.072;7.800;2023-09-30T09:32:58;100362.13;;;18.61;86.35
63552;BME280;49698;48.072;7.800;2023-09-30T09:35:27;100362.16;;;18.70;85.69
63552;BME280;49698;48.072;7.800;2023-09-30T09:37:58;100354.06;;;18.78;85.48
63552;BME280;49698;48.072;7.800;2023-09-30T09:40:27;100345.31;;;18.90;85.19
63552;BME280;49698;48.072;7.800;2023-09-30T09:42:56;100336.53;;;19.02;84.54
63552;BME280;49698;48.072;7.800;2023-09-30T09:45:26;100330.13;;;19.15;84.32
63552;BME280;49698;48.072;7.800;2023-09-30T09:47:55;100330.03;;;19.29;83.39
63552;BME280;49698;48.072;7.800;2023-09-30T09:50:24;100334.97;;;19.36;81.64
63552;BME280;49698;48.072;7.800;2023-09-30T09:52:53;100334.34;;;19.39;81.57
63552;BME280;49698;48.072;7.800;2023-09-30T09:55:23;100333.56;;;19.47;81.42
63552;BME280;49698;48.072;7.800;2023-09-30T09:57:52;100333.72;;;19.59;81.27
63552;BME280;49698;48.072;7.800;2023-09-30T10:00:22;100331.84;;;19.68;80.89
63552;BME280;49698;48.072;7.800;2023-09-30T10:02:50;100336.97;;;19.78;80.73
63552;BME280;49698;48.072;7.800;2023-09-30T10:05:21;100330.72;;;19.87;79.99
63552;BME280;49698;48.072;7.800;2023-09-30T10:07:52;100336.81;;;19.92;79.74
63552;BME280;49698;48.072;7.800;2023-09-30T10:10:22;100337.47;;;19.98;79.53
63552;BME280;49698;48.072;7.800;2023-09-30T10:12:51;100336.31;;;19.99;78.90
63552;BME280;49698;48.072;7.800;2023-09-30T10:15:38;100331.81;;;20.03;78.99
63552;BME280;49698;48.072;7.800;2023-09-30T10:18:08;100333.09;;;20.06;78.49
63552;BME280;49698;48.072;7.800;2023-09-30T10:20:42;100333.09;;;20.14;78.26
63552;BME280;49698;48.072;7.800;2023-09-30T10:23:18;100324.53;;;20.24;77.63
63552;BME280;49698;48.072;7.800;2023-09-30T10:25:48;100319.22;;;20.28;77.16
63552;BME280;49698;48.072;7.800;2023-09-30T10:28:33;100320.97;;;20.33;76.75
63552;BME280;49698;48.072;7.800;2023-09-30T10:31:12;100318.91;;;20.38;76.38
63552;BME280;49698;48.072;7.800;2023-09-30T10:34:19;100306.69;;;20.44;75.59
63552;BME280;49698;48.072;7.800;2023-09-30T10:36:49;100315.00;;;20.48;75.02
63552;BME280;49698;48.072;7.800;2023-09-30T10:39:57;100316.59;;;20.58;74.42
63552;BME280;49698;48.072;7.800;2023-09-30T10:42:47;100315.63;;;20.62;74.13
63552;BME280;49698;48.072;7.800;2023-09-30T10:45:44;100317.22;;;20.63;73.83
63552;BME280;49698;48.072;7.800;2023-09-30T10:48:36;100319.78;;;20.68;73.60
63552;BME280;49698;48.072;7.800;2023-09-30T10:51:12;100311.88;;;20.75;72.83
63552;BME280;49698;48.072;7.800;2023-09-30T10:53:43;100319.41;;;20.79;72.52
63552;BME280;49698;48.072;7.800;2023-09-30T10:56:12;100314.88;;;20.83;72.33
63552;BME280;49698;48.072;7.800;2023-09-30T10:58:41;100301.38;;;20.86;72.10
63552;BME280;49698;48.072;7.800;2023-09-30T11:01:09;100298.91;;;20.93;71.89
63552;BME280;49698;48.072;7.800;2023-09-30T11:03:38;100305.66;;;20.96;71.30
63552;BME280;49698;48.072;7.800;2023-09-30T11:06:06;100308.84;;;20.98;71.56
63552;BME280;49698;48.072;7.800;2023-09-30T11:08:37;100307.53;;;21.04;71.28
63552;BME280;49698;48.072;7.800;2023-09-30T11:11:07;100308.97;;;21.10;70.91
63552;BME280;49698;48.072;7.800;2023-09-30T11:13:36;100297.34;;;21.13;70.30
63552;BME280;49698;48.072;7.800;2023-09-30T11:16:06;100306.03;;;21.15;70.07
63552;BME280;49698;48.072;7.800;2023-09-30T11:18:35;100298.28;;;21.17;69.67
63552;BME280;49698;48.072;7.800;2023-09-30T11:21:06;100293.09;;;21.24;69.34
63552;BME280;49698;48.072;7.800;2023-09-30T11:23:36;100294.81;;;21.29;68.43
63552;BME280;49698;48.072;7.800;2023-09-30T11:26:05;100291.16;;;21.34;68.24
63552;BME280;49698;48.072;7.800;2023-09-30T11:28:42;100289.34;;;21.38;68.13
63552;BME280;49698;48.072;7.800;2023-09-30T11:31:11;100290.41;;;21.45;67.40
63552;BME280;49698;48.072;7.800;2023-09-30T11:33:51;100278.91;;;21.52;66.12
63552;BME280;49698;48.072;7.800;2023-09-30T11:36:20;100281.47;;;21.57;64.98
63552;BME280;49698;48.072;7.800;2023-09-30T11:38:50;100270.31;;;21.62;64.50
63552;BME280;49698;48.072;7.800;2023-09-30T11:41:19;100275.13;;;21.65;63.54
63552;BME280;49698;48.072;7.800;2023-09-30T11:44:00;100270.44;;;21.66;62.50
63552;BME280;49698;48.072;7.800;2023-09-30T11:46:30;100266.09;;;21.65;61.18
63552;BME280;49698;48.072;7.800;2023-09-30T11:49:01;100273.97;;;21.66;60.65
63552;BME280;49698;48.072;7.800;2023-09-30T11:51:29;100263.16;;;21.70;60.28
63552;BME280;49698;48.072;7.800;2023-09-30T11:54:02;100264.88;;;21.74;60.18
63552;BME280;49698;48.072;7.800;2023-09-30T11:56:32;100264.06;;;21.74;59.08
63552;BME280;49698;48.072;7.800;2023-09-30T11:59:02;100273.56;;;21.77;58.82
63552;BME280;49698;48.072;7.800;2023-09-30T12:01:31;100278.03;;;21.81;58.01
63552;BME280;49698;48.072;7.800;2023-09-30T12:04:00;100270.72;;;21.85;57.86
63552;BME280;49698;48.072;7.800;2023-09-30T12:06:28;100268.78;;;21.86;57.33
63552;BME280;49698;48.072;7.800;2023-09-30T12:08:56;100270.88;;;21.89;57.15
63552;BME280;49698;48.072;7.800;2023-09-30T12:11:24;100265.03;;;21.90;56.59
63552;BME280;49698;48.072;7.800;2023-09-30T12:13:52;100250.13;;;21.88;56.52
63552;BME280;49698;48.072;7.800;2023-09-30T12:16:22;100263.31;;;21.86;56.39
63552;BME280;49698;48.072;7.800;2023-09-30T12:18:50;100257.38;;;21.84;56.30
63552;BME280;49698;48.072;7.800;2023-09-30T12:21:18;100260.44;;;21.82;56.59
63552;BME280;49698;48.072;7.800;2023-09-30T12:23:47;100244.38;;;21.81;56.51
63552;BME280;49698;48.072;7.800;2023-09-30T12:26:15;100246.78;;;21.82;56.51
63552;BME280;49698;48.072;7.800;2023-09-30T12:28:45;100241.28;;;21.82;56.29
63552;BME280;49698;48.072;7.800;2023-09-30T12:31:15;100239.72;;;21.81;56.07
63552;BME280;49698;48.072;7.800;2023-09-30T12:33:45;100242.75;;;21.80;55.78
63552;BME280;49698;48.072;7.800;2023-09-30T12:36:18;100243.59;;;21.80;55.73
63552;BME280;49698;48.072;7.800;2023-09-30T12:38:46;100247.91;;;21.81;54.97
63552;BME280;49698;48.072;7.800;2023-09-30T12:41:14;100252.13;;;21.79;54.76
63552;BME280;49698;48.072;7.800;2023-09-30T12:43:42;100250.75;;;21.72;55.09
63552;BME280;49698;48.072;7.800;2023-09-30T12:46:10;100255.75;;;21.70;55.53
63552;BME280;49698;48.072;7.800;2023-09-30T12:48:40;100248.31;;;21.71;55.50
63552;BME280;49698;48.072;7.800;2023-09-30T12:51:10;100244.13;;;21.73;55.35
63552;BME280;49698;48.072;7.800;2023-09-30T12:53:38;100249.38;;;21.79;55.57
63552;BME280;49698;48.072;7.800;2023-09-30T12:56:06;100240.63;;;21.85;55.26
63552;BME280;49698;48.072;7.800;2023-09-30T12:58:34;100237.66;;;21.90;55.44
63552;BME280;49698;48.072;7.800;2023-09-30T13:01:02;100240.22;;;21.95;55.31